sensor_id;sensor_type;location;lat;lon;timestamp;pressure;altitude;pressure_sealevel;temperature;humidity
73151;BME280;61354;50.758;6.106;2023-05-09T00:01:36;99412.66;;;14.85;100.00
73151;BME280;61354;50.758;6.106;2023-05-09T00:04:03;99402.31;;;14.89;100.00
73151;BME280;61354;50.758;6.106;2023-05-09T00:06:29;99415.44;;;14.85;100.00
73151;BME280;61354;50.758;6.106;2023-05-09T00:08:54;99409.06;;;14.88;100.00
73151;BME280;61354;50.758;6.106;2023-05-09T00:11:20;99408.66;;;14.86;100.00
73151;BME280;61354;50.758;6.106;2023-05-09T00:13:47;99417.19;;;14.66;100.00
73151;BME280;61354;50.758;6.106;2023-05-09T00:16:13;99404.44;;;14.69;100.00
73151;BME280;61354;50.758;6.106;2023-05-09T00:18:40;99405.63;;;14.68;100.00
73151;BME280;61354;50.758;6.106;2023-05-09T00:21:07;99410.16;;;14.80;100.00
73151;BME280;61354;50.758;6.106;2023-05-09T00:23:33;99401.31;;;14.74;100.00
73151;BME280;61354;50.758;6.106;2023-05-09T00:25:59;99402.09;;;14.75;100.00
73151;BME280;61354;50.758;6.106;2023-05-09T00:28:25;99398.97;;;14.80;100.00
73151;BME280;61354;50.758;6.106;2023-05-09T00:30:52;99404.25;;;14.85;100.00
73151;BME280;61354;50.758;6.106;2023-05-09T00:33:18;99395.09;;;14.88;100.00
73151;BME280;61354;50.758;6.106;2023-05-09T00:35:44;99390.59;;;14.80;100.00
73151;BME280;61354;50.758;6.106;2023-05-09T00:38:09;99388.09;;;14.71;100.00
73151;BME280;61354;50.758;6.106;2023-05-09T00:40:35;99385.78;;;14.77;100.00
73151;BME280;61354;50.758;6.106;2023-05-09T00:43:01;99377.34;;;14.73;100.00
73151;BME280;61354;50.758;6.106;2023-05-09T00:45:26;99382.97;;;14.77;100.00
73151;BME280;61354;50.758;6.106;2023-05-09T00:47:52;99384.50;;;14.71;100.00
73151;BME280;61354;50.758;6.106;2023-05-09T00:50:18;99376.09;;;14.71;100.00
73151;BME280;61354;50.758;6.106;2023-05-09T00:52:43;99370.84;;;14.65;100.00
73151;BME280;61354;50.758;6.106;2023-05-09T00:55:09;99372.16;;;14.75;100.00
73151;BME280;61354;50.758;6.106;2023-05-09T00:57:35;99364.91;;;14.71;100.00
73151;BME280;61354;50.758;6.106;2023-05-09T01:00:01;99352.59;;;14.75;100.00
73151;BME280;61354;50.758;6.106;2023-05-09T01:02:29;99358.13;;;14.68;100.00
73151;BME280;61354;50.758;6.106;2023-05-09T01:04:56;99359.00;;;14.76;100.00
73151;BME280;61354;50.758;6.106;2023-05-09T01:13:03;99342.06;;;14.61;100.00
73151;BME280;61354;50.758;6.106;2023-05-09T01:15:53;99339.25;;;14.61;100.00
73151;BME280;61354;50.758;6.106;2023-05-09T01:21:07;99329.38;;;14.71;100.00
73151;BME280;61354;50.758;6.106;2023-05-09T01:24:07;99326.97;;;14.70;100.00
73151;BME280;61354;50.758;6.106;2023-05-09T01:29:18;99328.59;;;14.71;100.00
73151;BME280;61354;50.758;6.106;2023-05-09T01:31:47;99319.00;;;14.68;100.00
73151;BME280;61354;50.758;6.106;2023-05-09T01:34:17;99307.81;;;14.72;100.00
73151;BME280;61354;50.758;6.106;2023-05-09T01:36:43;99314.25;;;14.76;100.00
73151;BME280;61354;50.758;6.106;2023-05-09T01:39:11;99314.25;;;14.76;100.00
73151;BME280;61354;50.758;6.106;2023-05-09T01:41:37;99306.28;;;14.74;100.00
73151;BME280;61354;50.758;6.106;2023-05-09T01:44:05;99307.47;;;14.73;100.00
73151;BME280;61354;50.758;6.106;2023-05-09T01:46:32;99303.88;;;14.76;100.00
73151;BME280;61354;50.758;6.106;2023-05-09T01:49:00;99299.06;;;14.73;100.00
73151;BME280;61354;50.758;6.106;2023-05-09T01:51:27;99299.03;;;14.70;100.00
73151;BME280;61354;50.758;6.106;2023-05-09T01:53:55;99292.59;;;14.65;100.00
73151;BME280;61354;50.758;6.106;2023-05-09T01:56:22;99291.59;;;14.81;100.00
73151;BME280;61354;50.758;6.106;2023-05-09T01:58:49;99291.09;;;14.75;100.00
73151;BME280;61354;50.758;6.106;2023-05-09T02:01:17;99288.00;;;14.84;100.00
73151;BME280;61354;50.758;6.106;2023-05-09T02:03:44;99285.16;;;14.80;100.00
73151;BME280;61354;50.758;6.106;2023-05-09T02:06:12;99288.34;;;14.79;100.00
73151;BME280;61354;50.758;6.106;2023-05-09T02:08:40;99289.94;;;14.80;100.00
73151;BME280;61354;50.758;6.106;2023-05-09T02:11:06;99289.09;;;14.76;100.00
73151;BME280;61354;50.758;6.106;2023-05-09T02:13:32;99283.59;;;14.83;100.00
73151;BME280;61354;50.758;6.106;2023-05-09T02:15:58;99276.78;;;14.80;100.00
73151;BME280;61354;50.758;6.106;2023-05-09T02:18:24;99275.94;;;14.76;100.00
73151;BME280;61354;50.758;6.106;2023-05-09T02:20:49;99285.47;;;14.72;100.00
73151;BME280;61354;50.758;6.106;2023-05-09T02:23:15;99287.16;;;14.80;100.00
73151;BME280;61354;50.758;6.106;2023-05-09T02:25:40;99284.72;;;14.75;100.00
73151;BME280;61354;50.758;6.106;2023-05-09T02:28:07;99291.19;;;14.82;100.00
73151;BME280;61354;50.758;6.106;2023-05-09T02:30:38;99284.75;;;14.78;100.00
73151;BME280;61354;50.758;6.106;2023-05-09T02:33:07;99287.06;;;14.69;100.00
73151;BME280;61354;50.758;6.106;2023-05-09T02:35:34;99290.25;;;14.71;100.00
73151;BME280;61354;50.758;6.106;2023-05-09T02:38:02;99288.25;;;14.72;100.00
73151;BME280;61354;50.758;6.106;2023-05-09T02:40:28;99280.69;;;14.72;100.00
73151;BME280;61354;50.758;6.106;2023-05-09T02:42:55;99277.44;;;14.66;100.00
73151;BME280;61354;50.758;6.106;2023-05-09T02:45:20;99272.63;;;14.67;100.00
73151;BME280;61354;50.758;6.106;2023-05-09T02:47:46;99276.94;;;14.57;100.00
73151;BME280;61354;50.758;6.106;2023-05-09T02:50:12;99279.88;;;14.72;100.00
73151;BME280;61354;50.758;6.106;2023-05-09T02:52:37;99278.28;;;14.71;100.00
73151;BME280;61354;50.758;6.106;2023-05-09T02:55:04;99268.09;;;14.55;100.00
73151;BME280;61354;50.758;6.106;2023-05-09T02:57:30;99276.22;;;14.67;100.00
73151;BME280;61354;50.758;6.106;2023-05-09T02:59:55;99271.84;;;14.66;100.00
73151;BME280;61354;50.758;6.106;2023-05-09T03:02:21;99273.44;;;14.67;100.00
73151;BME280;61354;50.758;6.106;2023-05-09T03:04:48;99275.47;;;14.71;100.00
73151;BME280;61354;50.758;6.106;2023-05-09T03:07:13;99276.66;;;14.70;100.00
73151;BME280;61354;50.758;6.106;2023-05-09T03:09:39;99271.03;;;14.66;100.00
73151;BME280;61354;50.758;6.106;2023-05-09T03:12:05;99261.41;;;14.63;100.00
73151;BME280;61354;50.758;6.106;2023-05-09T03:14:30;99259.06;;;14.65;100.00
73151;BME280;61354;50.758;6.106;2023-05-09T03:16:56;99252.97;;;14.56;100.00
73151;BME280;61354;50.758;6.106;2023-05-09T03:19:22;99253.06;;;14.67;100.00
73151;BME280;61354;50.758;6.106;2023-05-09T03:21:47;99251.56;;;14.73;100.00
73151;BME280;61354;50.758;6.106;2023-05-09T03:24:13;99249.13;;;14.72;100.00
73151;BME280;61354;50.758;6.106;2023-05-09T03:26:38;99240.72;;;14.68;100.00
73151;BME280;61354;50.758;6.106;2023-05-09T03:29:04;99231.88;;;14.62;100.00
73151;BME280;61354;50.758;6.106;2023-05-09T03:31:30;99236.75;;;14.69;100.00
73151;BME280;61354;50.758;6.106;2023-05-09T03:33:56;99233.91;;;14.65;100.00
73151;BME280;61354;50.758;6.106;2023-05-09T03:36:21;99226.28;;;14.62;100.00
73151;BME280;61354;50.758;6.106;2023-05-09T03:38:47;99227.81;;;14.56;100.00
73151;BME280;61354;50.758;6.106;2023-05-09T03:41:14;99226.19;;;14.55;100.00
73151;BME280;61354;50.758;6.106;2023-05-09T03:43:40;99219.81;;;14.55;100.00
73151;BME280;61354;50.758;6.106;2023-05-09T03:46:06;99207.47;;;14.59;100.00
73151;BME280;61354;50.758;6.106;2023-05-09T03:48:31;99214.09;;;14.44;100.00
73151;BME280;61354;50.758;6.106;2023-05-09T03:50:57;99220.78;;;14.36;100.00
73151;BME280;61354;50.758;6.106;2023-05-09T03:53:22;99223.47;;;14.29;100.00
73151;BME280;61354;50.758;6.106;2023-05-09T03:55:48;99221.44;;;14.26;100.00
73151;BME280;61354;50.758;6.106;2023-05-09T03:58:14;99220.78;;;14.36;100.00
73151;BME280;61354;50.758;6.106;2023-05-09T04:00:39;99226.38;;;14.36;100.00
73151;BME280;61354;50.758;6.106;2023-05-09T04:03:05;99218.03;;;14.43;100.00
73151;BME280;61354;50.758;6.106;2023-05-09T04:05:31;99212.09;;;14.45;100.00
73151;BME280;61354;50.758;6.106;2023-05-09T04:07:58;99215.69;;;14.45;100.00
73151;BME280;61354;50.758;6.106;2023-05-09T04:10:24;99222.81;;;14.42;100.00
73151;BME280;61354;50.758;6.106;2023-05-09T04:12:50;99221.19;;;14.38;100.00
73151;BME280;61354;50.758;6.106;2023-05-09T04:15:16;99218.03;;;14.39;100.00
73151;BME280;61354;50.758;6.106;2023-05-09T04:17:41;99221.63;;;14.40;100.00
73151;BME280;61354;50.758;6.106;2023-05-09T04:20:08;99220.50;;;14.48;100.00
73151;BME280;61354;50.758;6.106;2023-05-09T04:22:35;99226.06;;;14.45;100.00
73151;BME280;61354;50.758;6.106;2023-05-09T04:25:01;99217.28;;;14.46;100.00
73151;BME280;61354;50.758;6.106;2023-05-09T04:27:28;99214.09;;;14.44;100.00
73151;BME280;61354;50.758;6.106;2023-05-09T04:29:53;99214.16;;;14.51;100.00
73151;BME280;61354;50.758;6.106;2023-05-09T04:32:19;99212.56;;;14.50;100.00
73151;BME280;61354;50.758;6.106;2023-05-09T04:34:47;99201.41;;;14.50;100.00
73151;BME280;61354;50.758;6.106;2023-05-09T04:37:12;99210.16;;;14.49;100.00
73151;BME280;61354;50.758;6.106;2023-05-09T04:39:38;99213.25;;;14.40;100.00
73151;BME280;61354;50.758;6.106;2023-05-09T04:42:04;99212.44;;;14.43;100.00
73151;BME280;61354;50.758;6.106;2023-05-09T04:44:29;99210.06;;;14.41;100.00
73151;BME280;61354;50.758;6.106;2023-05-09T04:46:55;99205.69;;;14.44;100.00
73151;BME280;61354;50.758;6.106;2023-05-09T04:49:22;99199.72;;;14.46;100.00
73151;BME280;61354;50.758;6.106;2023-05-09T04:51:49;99194.56;;;14.48;100.00
73151;BME280;61354;50.758;6.106;2023-05-09T04:54:15;99198.91;;;14.45;100.00
73151;BME280;61354;50.758;6.106;2023-05-09T04:56:43;99194.22;;;14.49;100.00
73151;BME280;61354;50.758;6.106;2023-05-09T04:59:09;99203.81;;;14.52;100.00
73151;BME280;61354;50.758;6.106;2023-05-09T05:01:34;99195.72;;;14.47;100.00
73151;BME280;61354;50.758;6.106;2023-05-09T05:04:00;99190.94;;;14.47;100.00
73151;BME280;61354;50.758;6.106;2023-05-09T05:06:26;99185.44;;;14.51;100.00
73151;BME280;61354;50.758;6.106;2023-05-09T05:08:51;99184.63;;;14.50;100.00
73151;BME280;61354;50.758;6.106;2023-05-09T05:11:17;99177.44;;;14.49;100.00
73151;BME280;61354;50.758;6.106;2023-05-09T05:13:43;99171.84;;;14.49;100.00
73151;BME280;61354;50.758;6.106;2023-05-09T05:16:09;99172.25;;;14.51;100.00
73151;BME280;61354;50.758;6.106;2023-05-09T05:18:34;99172.19;;;14.44;100.00
73151;BME280;61354;50.758;6.106;2023-05-09T05:21:00;99171.06;;;14.49;100.00
73151;BME280;61354;50.758;6.106;2023-05-09T05:23:25;99161.47;;;14.50;100.00
73151;BME280;61354;50.758;6.106;2023-05-09T05:25:51;99159.97;;;14.56;100.00
73151;BME280;61354;50.758;6.106;2023-05-09T05:28:17;99156.34;;;14.55;100.00
73151;BME280;61354;50.758;6.106;2023-05-09T05:30:43;99154.84;;;14.65;100.00
73151;BME280;61354;50.758;6.106;2023-05-09T05:33:08;99154.88;;;14.69;100.00
73151;BME280;61354;50.758;6.106;2023-05-09T05:35:34;99155.38;;;14.78;100.00
73151;BME280;61354;50.758;6.106;2023-05-09T05:37:59;99146.53;;;14.76;100.00
73151;BME280;61354;50.758;6.106;2023-05-09T05:40:25;99150.53;;;14.75;100.00
73151;BME280;61354;50.758;6.106;2023-05-09T05:42:50;99146.53;;;14.76;100.00
73151;BME280;61354;50.758;6.106;2023-05-09T05:45:16;99144.22;;;14.81;100.00
73151;BME280;61354;50.758;6.106;2023-05-09T05:47:42;99150.59;;;14.82;100.00
73151;BME280;61354;50.758;6.106;2023-05-09T05:50:07;99134.66;;;14.86;100.00
73151;BME280;61354;50.758;6.106;2023-05-09T05:52:39;99132.28;;;14.88;100.00
73151;BME280;61354;50.758;6.106;2023-05-09T05:55:05;99137.88;;;14.88;100.00
73151;BME280;61354;50.758;6.106;2023-05-09T05:57:30;99127.94;;;14.94;100.00
73151;BME280;61354;50.758;6.106;2023-05-09T05:59:56;99125.16;;;14.94;100.00
73151;BME280;61354;50.758;6.106;2023-05-09T06:02:22;99119.97;;;15.00;100.00
73151;BME280;61354;50.758;6.106;2023-05-09T06:04:47;99114.78;;;14.98;100.00
73151;BME280;61354;50.758;6.106;2023-05-09T06:07:13;99123.63;;;15.04;100.00
73151;BME280;61354;50.758;6.106;2023-05-09T06:09:39;99117.28;;;15.10;100.00
73151;BME280;61354;50.758;6.106;2023-05-09T06:12:05;99110.13;;;15.16;100.00
73151;BME280;61354;50.758;6.106;2023-05-09T06:14:31;99110.56;;;15.26;100.00
73151;BME280;61354;50.758;6.106;2023-05-09T06:16:57;99103.31;;;15.17;100.00
73151;BME280;61354;50.758;6.106;2023-05-09T06:19:23;99100.66;;;15.35;100.00
73151;BME280;61354;50.758;6.106;2023-05-09T06:21:48;99095.44;;;15.37;100.00
73151;BME280;61354;50.758;6.106;2023-05-09T06:24:14;99093.53;;;15.52;100.00
73151;BME280;61354;50.758;6.106;2023-05-09T06:26:39;99087.94;;;15.49;100.00
73151;BME280;61354;50.758;6.106;2023-05-09T06:29:05;99080.75;;;15.55;100.00
73151;BME280;61354;50.758;6.106;2023-05-09T06:31:32;99082.38;;;15.63;100.00
73151;BME280;61354;50.758;6.106;2023-05-09T06:34:05;99073.63;;;15.64;100.00
73151;BME280;61354;50.758;6.106;2023-05-09T06:36:31;99070.38;;;15.62;100.00
73151;BME280;61354;50.758;6.106;2023-05-09T06:38:58;99068.38;;;15.56;100.00
73151;BME280;61354;50.758;6.106;2023-05-09T06:41:24;99075.25;;;15.65;100.00
73151;BME280;61354;50.758;6.106;2023-05-09T06:43:50;99080.88;;;15.76;100.00
73151;BME280;61354;50.758;6.106;2023-05-09T06:46:16;99064.06;;;15.69;100.00
73151;BME280;61354;50.758;6.106;2023-05-09T06:48:42;99063.25;;;15.69;100.00
73151;BME280;61354;50.758;6.106;2023-05-09T06:51:07;99064.44;;;15.71;100.00
73151;BME280;61354;50.758;6.106;2023-05-09T06:53:33;99063.28;;;15.72;100.00
73151;BME280;61354;50.758;6.106;2023-05-09T06:55:59;99056.91;;;15.82;100.00
73151;BME280;61354;50.758;6.106;2023-05-09T06:58:25;99062.50;;;15.82;100.00
73151;BME280;61354;50.758;6.106;2023-05-09T07:00:52;99044.13;;;15.92;100.00
73151;BME280;61354;50.758;6.106;2023-05-09T07:03:18;99055.34;;;15.99;100.00
73151;BME280;61354;50.758;6.106;2023-05-09T07:05:43;99048.16;;;15.98;100.00
73151;BME280;61354;50.758;6.106;2023-05-09T07:08:09;99044.94;;;16.03;100.00
73151;BME280;61354;50.758;6.106;2023-05-09T07:10:34;99044.56;;;16.08;100.00
73151;BME280;61354;50.758;6.106;2023-05-09T07:13:00;99040.97;;;16.29;100.00
73151;BME280;61354;50.758;6.106;2023-05-09T07:15:26;99035.38;;;16.33;100.00
73151;BME280;61354;50.758;6.106;2023-05-09T07:17:51;99035.41;;;16.40;100.00
73151;BME280;61354;50.758;6.106;2023-05-09T07:20:17;99026.59;;;16.34;100.00
73151;BME280;61354;50.758;6.106;2023-05-09T07:22:43;99024.19;;;16.51;100.00
73151;BME280;61354;50.758;6.106;2023-05-09T07:25:09;99029.00;;;16.61;100.00
73151;BME280;61354;50.758;6.106;2023-05-09T07:27:35;99024.59;;;16.56;99.53
73151;BME280;61354;50.758;6.106;2023-05-09T07:30:04;99015.81;;;16.76;100.00
73151;BME280;61354;50.758;6.106;2023-05-09T07:32:30;99013.75;;;16.90;100.00
73151;BME280;61354;50.758;6.106;2023-05-09T07:34:56;99007.34;;;17.01;100.00
73151;BME280;61354;50.758;6.106;2023-05-09T07:37:22;99010.94;;;17.01;98.74
73151;BME280;61354;50.758;6.106;2023-05-09T07:39:47;99007.31;;;17.08;97.23
73151;BME280;61354;50.758;6.106;2023-05-09T07:42:13;99014.53;;;17.09;100.00
73151;BME280;61354;50.758;6.106;2023-05-09T07:44:39;99014.91;;;17.07;97.54
73151;BME280;61354;50.758;6.106;2023-05-09T07:47:04;99010.13;;;17.04;97.48
73151;BME280;61354;50.758;6.106;2023-05-09T07:49:31;99007.28;;;17.11;96.81
73151;BME280;61354;50.758;6.106;2023-05-09T07:51:57;99009.72;;;17.02;96.89
73151;BME280;61354;50.758;6.106;2023-05-09T07:54:22;99005.75;;;16.96;97.49
73151;BME280;61354;50.758;6.106;2023-05-09T07:56:48;99003.34;;;16.98;96.53
73151;BME280;61354;50.758;6.106;2023-05-09T07:59:13;98998.50;;;17.02;96.67
73151;BME280;61354;50.758;6.106;2023-05-09T08:01:39;99000.16;;;16.89;95.57
73151;BME280;61354;50.758;6.106;2023-05-09T08:04:05;98993.31;;;16.97;96.79
73151;BME280;61354;50.758;6.106;2023-05-09T08:06:33;98986.88;;;17.11;95.92
73151;BME280;61354;50.758;6.106;2023-05-09T08:08:59;98991.66;;;17.18;97.25
73151;BME280;61354;50.758;6.106;2023-05-09T08:11:25;98986.00;;;17.25;96.10
73151;BME280;61354;50.758;6.106;2023-05-09T08:13:50;98978.44;;;17.11;95.97
73151;BME280;61354;50.758;6.106;2023-05-09T08:16:16;98972.75;;;17.29;94.36
73151;BME280;61354;50.758;6.106;2023-05-09T08:18:42;98966.69;;;17.41;94.50
73151;BME280;61354;50.758;6.106;2023-05-09T08:21:08;98959.91;;;17.35;93.79
73151;BME280;61354;50.758;6.106;2023-05-09T08:23:46;98961.06;;;17.41;93.35
73151;BME280;61354;50.758;6.106;2023-05-09T08:26:11;98963.88;;;17.45;93.23
73151;BME280;61354;50.758;6.106;2023-05-09T08:28:43;98953.81;;;17.54;94.17
73151;BME280;61354;50.758;6.106;2023-05-09T08:31:08;98944.63;;;17.43;92.92
73151;BME280;61354;50.758;6.106;2023-05-09T08:33:43;98947.00;;;17.48;92.01
73151;BME280;61354;50.758;6.106;2023-05-09T08:36:09;98940.63;;;17.44;92.40
73151;BME280;61354;50.758;6.106;2023-05-09T08:38:35;98936.53;;;17.56;91.81
73151;BME280;61354;50.758;6.106;2023-05-09T08:41:01;98939.31;;;17.63;92.74
73151;BME280;61354;50.758;6.106;2023-05-09T08:43:27;98943.69;;;17.68;92.95
73151;BME280;61354;50.758;6.106;2023-05-09T08:45:56;98937.75;;;17.58;91.05
73151;BME280;61354;50.758;6.106;2023-05-09T08:48:23;98939.28;;;17.67;93.44
73151;BME280;61354;50.758;6.106;2023-05-09T08:50:49;98933.75;;;17.52;89.55
73151;BME280;61354;50.758;6.106;2023-05-09T08:53:15;98930.97;;;17.45;91.27
73151;BME280;61354;50.758;6.106;2023-05-09T08:55:44;98930.03;;;17.70;92.94
73151;BME280;61354;50.758;6.106;2023-05-09T08:58:12;98933.25;;;17.72;91.85
73151;BME280;61354;50.758;6.106;2023-05-09T09:00:38;98929.59;;;17.82;90.33
73151;BME280;61354;50.758;6.106;2023-05-09T09:03:06;98923.44;;;18.01;90.65
73151;BME280;61354;50.758;6.106;2023-05-09T09:05:36;98921.88;;;17.93;87.96
73151;BME280;61354;50.758;6.106;2023-05-09T09:08:03;98922.25;;;17.95;88.29
73151;BME280;61354;50.758;6.106;2023-05-09T09:10:32;98909.69;;;18.14;88.60
73151;BME280;61354;50.758;6.106;2023-05-09T09:13:02;98911.28;;;18.11;85.83
73151;BME280;61354;50.758;6.106;2023-05-09T09:15:33;98917.59;;;17.71;85.50
73151;BME280;61354;50.758;6.106;2023-05-09T09:18:05;98911.69;;;17.54;86.31
73151;BME280;61354;50.758;6.106;2023-05-09T09:20:32;98904.75;;;17.70;87.98
73151;BME280;61354;50.758;6.106;2023-05-09T09:22:59;98908.81;;;17.61;86.84
73151;BME280;61354;50.758;6.106;2023-05-09T09:25:28;98904.00;;;17.65;87.15
73151;BME280;61354;50.758;6.106;2023-05-09T09:27:53;98900.81;;;17.63;85.85
73151;BME280;61354;50.758;6.106;2023-05-09T09:30:22;98892.22;;;17.92;87.95
73151;BME280;61354;50.758;6.106;2023-05-09T09:32:48;98895.34;;;18.01;87.78
73151;BME280;61354;50.758;6.106;2023-05-09T09:35:13;98893.28;;;18.05;86.40
73151;BME280;61354;50.758;6.106;2023-05-09T09:37:39;98889.72;;;18.01;87.44
73151;BME280;61354;50.758;6.106;2023-05-09T09:40:07;98882.38;;;18.14;86.62
73151;BME280;61354;50.758;6.106;2023-05-09T09:42:44;98893.16;;;18.20;84.31
73151;BME280;61354;50.758;6.106;2023-05-09T09:45:18;98879.44;;;18.29;86.12
73151;BME280;61354;50.758;6.106;2023-05-09T09:47:45;98876.22;;;18.27;85.52
73151;BME280;61354;50.758;6.106;2023-05-09T09:50:16;98869.91;;;18.16;83.41
73151;BME280;61354;50.758;6.106;2023-05-09T09:52:50;98863.88;;;18.21;84.73
73151;BME280;61354;50.758;6.106;2023-05-09T09:55:17;98866.97;;;18.30;84.49
73151;BME280;61354;50.758;6.106;2023-05-09T09:57:43;98862.25;;;18.20;83.60
73151;BME280;61354;50.758;6.106;2023-05-09T10:00:11;98858.09;;;18.35;84.45
73151;BME280;61354;50.758;6.106;2023-05-09T10:02:51;98848.03;;;18.37;81.57
73151;BME280;61354;50.758;6.106;2023-05-09T10:05:28;98843.69;;;18.71;84.90
73151;BME280;61354;50.758;6.106;2023-05-09T10:10:28;98833.50;;;18.80;83.18
73151;BME280;61354;50.758;6.106;2023-05-09T10:13:00;98837.59;;;18.76;84.22
73151;BME280;61354;50.758;6.106;2023-05-09T10:15:28;98832.47;;;18.63;83.08
73151;BME280;61354;50.758;6.106;2023-05-09T10:17:56;98831.50;;;18.43;82.37
73151;BME280;61354;50.758;6.106;2023-05-09T10:20:22;98827.47;;;18.44;83.72
73151;BME280;61354;50.758;6.106;2023-05-09T10:22:55;98830.66;;;18.46;81.91
73151;BME280;61354;50.758;6.106;2023-05-09T10:25:46;98829.59;;;18.33;82.69
73151;BME280;61354;50.758;6.106;2023-05-09T10:28:14;98827.63;;;18.30;83.06
73151;BME280;61354;50.758;6.106;2023-05-09T10:30:51;98823.66;;;18.24;83.13
73151;BME280;61354;50.758;6.106;2023-05-09T10:33:25;98814.84;;;18.25;85.34
73151;BME280;61354;50.758;6.106;2023-05-09T10:35:53;98817.25;;;18.23;83.28
73151;BME280;61354;50.758;6.106;2023-05-09T10:38:20;98820.53;;;18.14;83.46
73151;BME280;61354;50.758;6.106;2023-05-09T10:40:46;98811.88;;;17.98;83.15
73151;BME280;61354;50.758;6.106;2023-05-09T10:43:13;98808.59;;;18.03;83.20
73151;BME280;61354;50.758;6.106;2023-05-09T10:45:39;98812.94;;;18.11;83.21
73151;BME280;61354;50.758;6.106;2023-05-09T10:48:05;98808.72;;;17.93;84.15
73151;BME280;61354;50.758;6.106;2023-05-09T10:50:33;98807.25;;;17.77;83.69
73151;BME280;61354;50.758;6.106;2023-05-09T10:53:03;98808.84;;;17.78;86.14
73151;BME280;61354;50.758;6.106;2023-05-09T10:55:47;98806.81;;;17.79;87.29
73151;BME280;61354;50.758;6.106;2023-05-09T10:58:20;98807.69;;;17.69;87.76
73151;BME280;61354;50.758;6.106;2023-05-09T11:00:47;98794.41;;;17.80;87.31
73151;BME280;61354;50.758;6.106;2023-05-09T11:03:13;98797.28;;;17.65;87.59
73151;BME280;61354;50.758;6.106;2023-05-09T11:05:40;98792.78;;;17.79;89.21
73151;BME280;61354;50.758;6.106;2023-05-09T11:08:40;98791.56;;;17.83;88.59
73151;BME280;61354;50.758;6.106;2023-05-09T11:11:06;98782.97;;;17.98;87.71
73151;BME280;61354;50.758;6.106;2023-05-09T11:13:35;98782.16;;;18.01;90.69
73151;BME280;61354;50.758;6.106;2023-05-09T11:16:04;98774.56;;;17.98;90.95
73151;BME280;61354;50.758;6.106;2023-05-09T11:18:31;98772.56;;;17.95;90.14
73151;BME280;61354;50.758;6.106;2023-05-09T11:20:57;98774.28;;;17.85;90.62
73151;BME280;61354;50.758;6.106;2023-05-09T11:23:28;98771.84;;;17.87;90.49
73151;BME280;61354;50.758;6.106;2023-05-09T11:26:03;98775.03;;;17.89;90.76
73151;BME280;61354;50.758;6.106;2023-05-09T11:28:31;98764.13;;;17.50;92.20
73151;BME280;61354;50.758;6.106;2023-05-09T11:31:10;98770.97;;;17.45;90.73
73151;BME280;61354;50.758;6.106;2023-05-09T11:33:36;98761.78;;;17.41;90.99
73151;BME280;61354;50.758;6.106;2023-05-09T11:36:15;98761.69;;;17.55;91.78
73151;BME280;61354;50.758;6.106;2023-05-09T11:38:43;98759.00;;;17.86;92.90
73151;BME280;61354;50.758;6.106;2023-05-09T11:41:10;98756.06;;;17.55;90.57
73151;BME280;61354;50.758;6.106;2023-05-09T11:43:35;98762.38;;;17.67;91.96
73151;BME280;61354;50.758;6.106;2023-05-09T11:46:02;98752.00;;;17.63;92.55
73151;BME280;61354;50.758;6.106;2023-05-09T11:48:28;98748.75;;;17.65;93.09
73151;BME280;61354;50.758;6.106;2023-05-09T11:50:54;98744.66;;;17.25;91.54
73151;BME280;61354;50.758;6.106;2023-05-09T11:53:19;98741.47;;;17.26;92.66
73151;BME280;61354;50.758;6.106;2023-05-09T11:55:45;98739.47;;;17.23;93.35
73151;BME280;61354;50.758;6.106;2023-05-09T11:58:44;98739.88;;;17.25;94.33
73151;BME280;61354;50.758;6.106;2023-05-09T12:01:11;98736.81;;;17.05;93.99
73151;BME280;61354;50.758;6.106;2023-05-09T12:03:43;98735.16;;;17.11;96.77
73151;BME280;61354;50.758;6.106;2023-05-09T12:06:17;98738.09;;;16.94;96.03
73151;BME280;61354;50.758;6.106;2023-05-09T12:08:44;98737.22;;;17.00;96.80
73151;BME280;61354;50.758;6.106;2023-05-09T12:11:10;98731.63;;;17.00;99.56
73151;BME280;61354;50.758;6.106;2023-05-09T12:14:03;98726.78;;;17.04;98.39
73151;BME280;61354;50.758;6.106;2023-05-09T12:16:29;98729.34;;;16.81;98.27
73151;BME280;61354;50.758;6.106;2023-05-09T12:18:55;98726.88;;;16.94;99.46
73151;BME280;61354;50.758;6.106;2023-05-09T12:21:20;98722.06;;;16.94;99.33
73151;BME280;61354;50.758;6.106;2023-05-09T12:23:46;98718.19;;;16.74;100.00
73151;BME280;61354;50.758;6.106;2023-05-09T12:26:12;98722.53;;;16.82;100.00
73151;BME280;61354;50.758;6.106;2023-05-09T12:28:43;98716.44;;;16.98;100.00
73151;BME280;61354;50.758;6.106;2023-05-09T12:31:10;98710.03;;;16.97;99.32
73151;BME280;61354;50.758;6.106;2023-05-09T12:33:37;98709.19;;;17.00;100.00
73151;BME280;61354;50.758;6.106;2023-05-09T12:39:17;98703.13;;;17.09;99.31
73151;BME280;61354;50.758;6.106;2023-05-09T12:41:46;98703.63;;;16.97;100.00
73151;BME280;61354;50.758;6.106;2023-05-09T12:44:46;98704.94;;;16.71;100.00
73151;BME280;61354;50.758;6.106;2023-05-09T12:47:13;98698.41;;;16.95;100.00
73151;BME280;61354;50.758;6.106;2023-05-09T12:49:38;98698.06;;;16.86;100.00
73151;BME280;61354;50.758;6.106;2023-05-09T12:52:04;98700.41;;;16.95;100.00
73151;BME280;61354;50.758;6.106;2023-05-09T12:54:47;98698.13;;;16.79;100.00
73151;BME280;61354;50.758;6.106;2023-05-09T12:57:48;98701.22;;;16.92;100.00
73151;BME280;61354;50.758;6.106;2023-05-09T13:02:56;98693.59;;;16.96;100.00
73151;BME280;61354;50.758;6.106;2023-05-09T13:05:22;98690.00;;;16.95;100.00
73151;BME280;61354;50.758;6.106;2023-05-09T13:07:50;98689.28;;;16.84;100.00
73151;BME280;61354;50.758;6.106;2023-05-09T13:10:18;98689.22;;;16.91;100.00
73151;BME280;61354;50.758;6.106;2023-05-09T13:12:48;98682.44;;;16.88;100.00
73151;BME280;61354;50.758;6.106;2023-05-09T13:15:16;98686.09;;;16.82;100.00